sensor_id;sensor_type;location;lat;lon;timestamp;pressure;altitude;pressure_sealevel;temperature;humidity
70015;BME280;57358;51.094;6.760;2022-12-29T00:00:06;100003.19;;;9.15;100.00
70015;BME280;57358;51.094;6.760;2022-12-29T00:02:33;99981.28;;;9.02;100.00
70015;BME280;57358;51.094;6.760;2022-12-29T00:04:59;99931.09;;;8.79;100.00
70015;BME280;57358;51.094;6.760;2022-12-29T00:07:26;99997.06;;;9.31;100.00
70015;BME280;57358;51.094;6.760;2022-12-29T00:09:52;99947.81;;;9.07;100.00
70015;BME280;57358;51.094;6.760;2022-12-29T00:12:18;99949.88;;;9.02;100.00
70015;BME280;57358;51.094;6.760;2022-12-29T00:14:45;99981.38;;;9.31;100.00
70015;BME280;57358;51.094;6.760;2022-12-29T00:17:30;99799.97;;;8.24;100.00
70015;BME280;57358;51.094;6.760;2022-12-29T00:19:56;99937.50;;;9.20;100.00
70015;BME280;57358;51.094;6.760;2022-12-29T00:22:43;99970.16;;;9.43;100.00
70015;BME280;57358;51.094;6.760;2022-12-29T00:25:28;99942.38;;;9.26;100.00
70015;BME280;57358;51.094;6.760;2022-12-29T00:28:13;99860.66;;;8.76;100.00
70015;BME280;57358;51.094;6.760;2022-12-29T00:31:01;99971.75;;;9.46;100.00
70015;BME280;57358;51.094;6.760;2022-12-29T00:33:47;99744.06;;;8.12;100.00
70015;BME280;57358;51.094;6.760;2022-12-29T00:36:35;99981.41;;;9.59;100.00
70015;BME280;57358;51.094;6.760;2022-12-29T00:39:07;99985.44;;;9.65;100.00
70015;BME280;57358;51.094;6.760;2022-12-29T00:41:52;99926.66;;;9.26;100.00
70015;BME280;57358;51.094;6.760;2022-12-29T00:44:37;99961.50;;;9.57;100.00
70015;BME280;57358;51.094;6.760;2022-12-29T00:47:04;99958.78;;;9.58;100.00
70015;BME280;57358;51.094;6.760;2022-12-29T00:49:32;99967.56;;;9.72;100.00
70015;BME280;57358;51.094;6.760;2022-12-29T00:54:28;99878.41;;;9.30;100.00
70015;BME280;57358;51.094;6.760;2022-12-29T00:56:55;99930.25;;;9.68;100.00
70015;BME280;57358;51.094;6.760;2022-12-29T00:59:22;99944.94;;;9.71;100.00
70015;BME280;57358;51.094;6.760;2022-12-29T01:01:51;99842.06;;;8.95;100.00
70015;BME280;57358;51.094;6.760;2022-12-29T01:04:19;99949.72;;;9.64;100.00
70015;BME280;57358;51.094;6.760;2022-12-29T01:06:46;99944.56;;;9.63;100.00
70015;BME280;57358;51.094;6.760;2022-12-29T01:09:13;99955.41;;;9.85;100.00
70015;BME280;57358;51.094;6.760;2022-12-29T01:11:59;99957.66;;;10.06;100.00
70015;BME280;57358;51.094;6.760;2022-12-29T01:14:26;99962.16;;;10.04;100.00
70015;BME280;57358;51.094;6.760;2022-12-29T01:16:53;99951.75;;;9.59;100.00
70015;BME280;57358;51.094;6.760;2022-12-29T01:19:21;99925.28;;;9.64;100.00
70015;BME280;57358;51.094;6.760;2022-12-29T01:21:48;99970.22;;;9.86;100.00
70015;BME280;57358;51.094;6.760;2022-12-29T01:24:16;99977.72;;;9.92;100.00
70015;BME280;57358;51.094;6.760;2022-12-29T01:26:45;99962.53;;;9.97;100.00
70015;BME280;57358;51.094;6.760;2022-12-29T01:29:12;99936.78;;;9.90;100.00
70015;BME280;57358;51.094;6.760;2022-12-29T01:31:39;99917.97;;;9.83;100.00
70015;BME280;57358;51.094;6.760;2022-12-29T01:34:06;99989.22;;;10.33;100.00
70015;BME280;57358;51.094;6.760;2022-12-29T01:36:33;99908.44;;;9.96;100.00
70015;BME280;57358;51.094;6.760;2022-12-29T01:39:00;99987.88;;;10.40;100.00
70015;BME280;57358;51.094;6.760;2022-12-29T01:41:26;99923.31;;;10.10;100.00
70015;BME280;57358;51.094;6.760;2022-12-29T01:43:57;99985.44;;;10.51;100.00
70015;BME280;57358;51.094;6.760;2022-12-29T01:46:31;99981.97;;;10.51;100.00
70015;BME280;57358;51.094;6.760;2022-12-29T01:49:04;99975.44;;;10.44;100.00
70015;BME280;57358;51.094;6.760;2022-12-29T01:51:38;99976.72;;;10.51;100.00
70015;BME280;57358;51.094;6.760;2022-12-29T01:54:11;99901.72;;;10.19;100.00
70015;BME280;57358;51.094;6.760;2022-12-29T01:56:39;99945.91;;;10.54;100.00
70015;BME280;57358;51.094;6.760;2022-12-29T01:59:10;99964.28;;;10.54;100.00
70015;BME280;57358;51.094;6.760;2022-12-29T02:01:39;99960.56;;;10.71;100.00
70015;BME280;57358;51.094;6.760;2022-12-29T02:04:06;99909.50;;;10.35;100.00
70015;BME280;57358;51.094;6.760;2022-12-29T02:06:38;99928.31;;;10.42;100.00
70015;BME280;57358;51.094;6.760;2022-12-29T02:09:07;99916.84;;;10.30;100.00
70015;BME280;57358;51.094;6.760;2022-12-29T02:11:34;99892.00;;;10.22;100.00
70015;BME280;57358;51.094;6.760;2022-12-29T02:14:08;99872.44;;;10.13;100.00
70015;BME280;57358;51.094;6.760;2022-12-29T02:28:09;99910.88;;;10.68;100.00
70015;BME280;57358;51.094;6.760;2022-12-29T02:30:45;99917.66;;;10.58;100.00
70015;BME280;57358;51.094;6.760;2022-12-29T02:33:41;99886.25;;;10.44;100.00
70015;BME280;57358;51.094;6.760;2022-12-29T02:36:16;99909.06;;;10.56;100.00
70015;BME280;57358;51.094;6.760;2022-12-29T02:39:10;99867.97;;;10.42;100.00
70015;BME280;57358;51.094;6.760;2022-12-29T02:42:03;99846.56;;;10.35;100.00
70015;BME280;57358;51.094;6.760;2022-12-29T02:44:46;99815.53;;;10.28;100.00
70015;BME280;57358;51.094;6.760;2022-12-29T02:47:36;99866.25;;;10.68;100.00
70015;BME280;57358;51.094;6.760;2022-12-29T02:50:17;99855.75;;;10.55;100.00
70015;BME280;57358;51.094;6.760;2022-12-29T02:52:52;99845.22;;;10.43;100.00
70015;BME280;57358;51.094;6.760;2022-12-29T02:55:23;99902.16;;;10.68;100.00
70015;BME280;57358;51.094;6.760;2022-12-29T02:58:08;99785.31;;;10.36;100.00
70015;BME280;57358;51.094;6.760;2022-12-29T03:06:57;99880.50;;;10.91;100.00
70015;BME280;57358;51.094;6.760;2022-12-29T03:09:42;99889.53;;;10.87;100.00
70015;BME280;57358;51.094;6.760;2022-12-29T03:15:23;99886.59;;;10.92;100.00
70015;BME280;57358;51.094;6.760;2022-12-29T03:18:22;99877.47;;;10.85;100.00
70015;BME280;57358;51.094;6.760;2022-12-29T03:21:04;99884.38;;;10.86;100.00
70015;BME280;57358;51.094;6.760;2022-12-29T03:23:34;99837.31;;;10.70;100.00
70015;BME280;57358;51.094;6.760;2022-12-29T03:26:07;99693.03;;;9.77;100.00
70015;BME280;57358;51.094;6.760;2022-12-29T03:28:42;99877.03;;;10.91;100.00
70015;BME280;57358;51.094;6.760;2022-12-29T03:31:12;99813.47;;;10.60;100.00
70015;BME280;57358;51.094;6.760;2022-12-29T03:33:41;99868.13;;;10.93;100.00
70015;BME280;57358;51.094;6.760;2022-12-29T03:36:13;99871.78;;;10.91;100.00
70015;BME280;57358;51.094;6.760;2022-12-29T03:38:57;99837.84;;;10.75;100.00
70015;BME280;57358;51.094;6.760;2022-12-29T03:41:30;99826.91;;;10.68;100.00
70015;BME280;57358;51.094;6.760;2022-12-29T03:43:57;99823.91;;;10.74;100.00
70015;BME280;57358;51.094;6.760;2022-12-29T03:46:23;99845.72;;;10.88;100.00
70015;BME280;57358;51.094;6.760;2022-12-29T03:48:49;99761.38;;;10.41;100.00
70015;BME280;57358;51.094;6.760;2022-12-29T03:51:16;99823.69;;;10.77;100.00
70015;BME280;57358;51.094;6.760;2022-12-29T03:53:44;99831.66;;;10.76;100.00
70015;BME280;57358;51.094;6.760;2022-12-29T03:56:10;99800.66;;;10.68;100.00
70015;BME280;57358;51.094;6.760;2022-12-29T03:58:36;99786.81;;;10.66;100.00
70015;BME280;57358;51.094;6.760;2022-12-29T04:01:03;99846.19;;;11.07;100.00
70015;BME280;57358;51.094;6.760;2022-12-29T04:03:29;99838.72;;;11.01;100.00
70015;BME280;57358;51.094;6.760;2022-12-29T04:05:56;99780.94;;;10.63;100.00
70015;BME280;57358;51.094;6.760;2022-12-29T04:08:22;99813.16;;;10.65;100.00
70015;BME280;57358;51.094;6.760;2022-12-29T04:10:49;99690.75;;;9.98;100.00
70015;BME280;57358;51.094;6.760;2022-12-29T04:13:16;99757.53;;;10.19;100.00
70015;BME280;57358;51.094;6.760;2022-12-29T04:15:43;99845.81;;;10.61;100.00
70015;BME280;57358;51.094;6.760;2022-12-29T04:18:12;99769.56;;;10.22;100.00
70015;BME280;57358;51.094;6.760;2022-12-29T04:20:38;99770.13;;;10.27;100.00
70015;BME280;57358;51.094;6.760;2022-12-29T04:23:23;99781.03;;;10.21;100.00
70015;BME280;57358;51.094;6.760;2022-12-29T04:25:50;99862.31;;;10.75;100.00
70015;BME280;57358;51.094;6.760;2022-12-29T04:28:16;99862.44;;;10.87;100.00
70015;BME280;57358;51.094;6.760;2022-12-29T04:30:44;99742.13;;;10.28;100.00
70015;BME280;57358;51.094;6.760;2022-12-29T04:33:11;99794.06;;;10.63;100.00
70015;BME280;57358;51.094;6.760;2022-12-29T04:35:39;99771.59;;;10.58;100.00
70015;BME280;57358;51.094;6.760;2022-12-29T04:38:08;99836.59;;;11.06;100.00
70015;BME280;57358;51.094;6.760;2022-12-29T04:40:34;99670.91;;;10.08;100.00
70015;BME280;57358;51.094;6.760;2022-12-29T04:43:01;99820.34;;;11.01;100.00
70015;BME280;57358;51.094;6.760;2022-12-29T04:45:27;99835.91;;;11.17;100.00
70015;BME280;57358;51.094;6.760;2022-12-29T04:47:53;99795.44;;;10.94;100.00
70015;BME280;57358;51.094;6.760;2022-12-29T04:50:20;99774.78;;;10.76;100.00
70015;BME280;57358;51.094;6.760;2022-12-29T04:52:46;99763.84;;;10.83;98.52
70015;BME280;57358;51.094;6.760;2022-12-29T04:55:13;99780.66;;;10.93;98.91
70015;BME280;57358;51.094;6.760;2022-12-29T04:57:40;99819.50;;;11.01;99.00
70015;BME280;57358;51.094;6.760;2022-12-29T05:00:07;99814.06;;;11.16;98.92
70015;BME280;57358;51.094;6.760;2022-12-29T05:02:36;99801.03;;;11.15;98.16
70015;BME280;57358;51.094;6.760;2022-12-29T05:05:04;99750.00;;;10.81;97.83
70015;BME280;57358;51.094;6.760;2022-12-29T05:07:31;99761.63;;;10.89;97.76
70015;BME280;57358;51.094;6.760;2022-12-29T05:09:59;99727.59;;;10.62;97.65
70015;BME280;57358;51.094;6.760;2022-12-29T05:12:29;99794.81;;;10.90;98.60
70015;BME280;57358;51.094;6.760;2022-12-29T05:14:56;99810.66;;;11.14;99.00
70015;BME280;57358;51.094;6.760;2022-12-29T05:17:22;99823.28;;;11.09;98.01
70015;BME280;57358;51.094;6.760;2022-12-29T05:19:49;99828.97;;;11.29;96.16
70015;BME280;57358;51.094;6.760;2022-12-29T05:22:15;99834.94;;;11.18;97.06
70015;BME280;57358;51.094;6.760;2022-12-29T05:24:43;99780.34;;;10.85;97.48
70015;BME280;57358;51.094;6.760;2022-12-29T05:27:10;99778.53;;;10.98;96.26
70015;BME280;57358;51.094;6.760;2022-12-29T05:29:36;99785.06;;;11.05;95.07
70015;BME280;57358;51.094;6.760;2022-12-29T05:32:02;99759.13;;;11.01;93.67
70015;BME280;57358;51.094;6.760;2022-12-29T05:34:29;99754.69;;;10.88;93.65
70015;BME280;57358;51.094;6.760;2022-12-29T05:36:55;99786.72;;;11.06;94.62
70015;BME280;57358;51.094;6.760;2022-12-29T05:39:22;99818.16;;;11.21;93.96
70015;BME280;57358;51.094;6.760;2022-12-29T05:41:48;99745.16;;;10.74;94.53
70015;BME280;57358;51.094;6.760;2022-12-29T05:44:15;99745.25;;;10.60;94.54
70015;BME280;57358;51.094;6.760;2022-12-29T05:46:43;99824.84;;;10.99;94.80
70015;BME280;57358;51.094;6.760;2022-12-29T05:49:09;99830.53;;;10.93;95.51
70015;BME280;57358;51.094;6.760;2022-12-29T05:51:36;99838.41;;;10.93;95.87
70015;BME280;57358;51.094;6.760;2022-12-29T05:54:20;99816.75;;;10.76;95.93
70015;BME280;57358;51.094;6.760;2022-12-29T05:56:46;99809.09;;;10.73;95.95
70015;BME280;57358;51.094;6.760;2022-12-29T05:59:12;99834.31;;;10.89;96.96
70015;BME280;57358;51.094;6.760;2022-12-29T06:01:39;99783.44;;;10.51;96.33
70015;BME280;57358;51.094;6.760;2022-12-29T06:04:05;99838.19;;;10.96;95.98
70015;BME280;57358;51.094;6.760;2022-12-29T06:06:32;99838.09;;;10.85;96.55
70015;BME280;57358;51.094;6.760;2022-12-29T06:08:58;99853.84;;;10.85;96.75
70015;BME280;57358;51.094;6.760;2022-12-29T06:11:25;99787.22;;;10.47;96.78
70015;BME280;57358;51.094;6.760;2022-12-29T06:13:51;99767.13;;;10.33;97.26
70015;BME280;57358;51.094;6.760;2022-12-29T06:16:18;99786.13;;;10.37;97.46
70015;BME280;57358;51.094;6.760;2022-12-29T06:18:46;99836.34;;;10.58;97.48
70015;BME280;57358;51.094;6.760;2022-12-29T06:21:13;99633.88;;;9.33;98.30
70015;BME280;57358;51.094;6.760;2022-12-29T06:23:39;99803.22;;;10.30;97.47
70015;BME280;57358;51.094;6.760;2022-12-29T06:26:06;99859.53;;;10.64;97.59
70015;BME280;57358;51.094;6.760;2022-12-29T06:28:32;99795.88;;;10.08;97.55
70015;BME280;57358;51.094;6.760;2022-12-29T06:30:59;99793.88;;;10.11;96.79
70015;BME280;57358;51.094;6.760;2022-12-29T06:33:25;99670.31;;;9.36;96.47
70015;BME280;57358;51.094;6.760;2022-12-29T06:35:52;99695.88;;;9.59;95.17
70015;BME280;57358;51.094;6.760;2022-12-29T06:38:18;99847.53;;;10.47;95.61
70015;BME280;57358;51.094;6.760;2022-12-29T06:40:44;99794.44;;;10.16;94.89
70015;BME280;57358;51.094;6.760;2022-12-29T06:43:11;99831.66;;;10.36;94.46
70015;BME280;57358;51.094;6.760;2022-12-29T06:45:39;99865.09;;;10.60;94.98
70015;BME280;57358;51.094;6.760;2022-12-29T06:48:06;99798.09;;;10.14;94.34
70015;BME280;57358;51.094;6.760;2022-12-29T06:50:33;99881.09;;;10.69;93.99
70015;BME280;57358;51.094;6.760;2022-12-29T06:52:59;99878.47;;;10.69;94.04
70015;BME280;57358;51.094;6.760;2022-12-29T06:55:25;99829.19;;;10.47;93.78
70015;BME280;57358;51.094;6.760;2022-12-29T06:57:57;99828.75;;;10.41;93.44
70015;BME280;57358;51.094;6.760;2022-12-29T07:00:25;99837.28;;;10.57;94.12
70015;BME280;57358;51.094;6.760;2022-12-29T07:02:51;99752.41;;;9.91;94.86
70015;BME280;57358;51.094;6.760;2022-12-29T07:05:18;99855.09;;;10.52;95.01
70015;BME280;57358;51.094;6.760;2022-12-29T07:07:44;99887.66;;;10.62;95.54
70015;BME280;57358;51.094;6.760;2022-12-29T07:10:11;99886.72;;;10.63;95.71
70015;BME280;57358;51.094;6.760;2022-12-29T07:12:37;99793.94;;;9.97;96.45
70015;BME280;57358;51.094;6.760;2022-12-29T07:15:04;99893.31;;;10.56;97.49
70015;BME280;57358;51.094;6.760;2022-12-29T07:17:30;99912.22;;;10.61;97.76
70015;BME280;57358;51.094;6.760;2022-12-29T07:19:57;99845.00;;;10.18;98.01
70015;BME280;57358;51.094;6.760;2022-12-29T07:22:23;99916.69;;;10.73;96.78
70015;BME280;57358;51.094;6.760;2022-12-29T07:24:49;99922.50;;;10.64;97.34
70015;BME280;57358;51.094;6.760;2022-12-29T07:27:16;99925.66;;;10.56;97.44
70015;BME280;57358;51.094;6.760;2022-12-29T07:29:42;99900.59;;;10.38;98.31
70015;BME280;57358;51.094;6.760;2022-12-29T07:32:08;99824.78;;;9.79;98.37
70015;BME280;57358;51.094;6.760;2022-12-29T07:34:35;99899.38;;;10.29;98.27
70015;BME280;57358;51.094;6.760;2022-12-29T07:37:01;99877.59;;;10.14;97.80
70015;BME280;57358;51.094;6.760;2022-12-29T07:39:28;99929.75;;;10.61;97.04
70015;BME280;57358;51.094;6.760;2022-12-29T07:41:54;99917.63;;;10.45;96.74
70015;BME280;57358;51.094;6.760;2022-12-29T07:44:29;99891.16;;;10.21;97.07
70015;BME280;57358;51.094;6.760;2022-12-29T07:46:56;99931.22;;;10.37;98.34
70015;BME280;57358;51.094;6.760;2022-12-29T07:49:26;99931.22;;;10.23;98.48
70015;BME280;57358;51.094;6.760;2022-12-29T07:51:53;99975.72;;;10.39;99.20
70015;BME280;57358;51.094;6.760;2022-12-29T07:54:19;99963.16;;;10.44;99.27
70015;BME280;57358;51.094;6.760;2022-12-29T07:56:46;99943.59;;;10.21;98.21
70015;BME280;57358;51.094;6.760;2022-12-29T07:59:12;99913.53;;;10.27;96.51
70015;BME280;57358;51.094;6.760;2022-12-29T08:01:39;99883.03;;;10.11;96.13
70015;BME280;57358;51.094;6.760;2022-12-29T08:04:05;99869.50;;;9.90;96.19
70015;BME280;57358;51.094;6.760;2022-12-29T08:06:32;99920.78;;;10.09;96.45
70015;BME280;57358;51.094;6.760;2022-12-29T08:08:59;99918.91;;;10.11;97.00
70015;BME280;57358;51.094;6.760;2022-12-29T08:11:37;99959.53;;;10.32;96.92
70015;BME280;57358;51.094;6.760;2022-12-29T08:14:04;99909.91;;;10.15;95.27
70015;BME280;57358;51.094;6.760;2022-12-29T08:16:31;99905.94;;;10.22;94.87
70015;BME280;57358;51.094;6.760;2022-12-29T08:18:58;99960.03;;;10.52;94.51
70015;BME280;57358;51.094;6.760;2022-12-29T08:21:26;99911.38;;;10.19;94.89
70015;BME280;57358;51.094;6.760;2022-12-29T08:23:53;99955.66;;;10.52;95.41
70015;BME280;57358;51.094;6.760;2022-12-29T08:26:19;99878.56;;;9.99;94.72
70015;BME280;57358;51.094;6.760;2022-12-29T08:28:46;99964.63;;;10.48;94.67
70015;BME280;57358;51.094;6.760;2022-12-29T08:31:13;99962.78;;;10.50;95.07
70015;BME280;57358;51.094;6.760;2022-12-29T08:33:39;99908.69;;;10.06;95.28
70015;BME280;57358;51.094;6.760;2022-12-29T08:36:06;99915.69;;;10.34;94.02
70015;BME280;57358;51.094;6.760;2022-12-29T08:38:33;99965.38;;;10.65;93.84
70015;BME280;57358;51.094;6.760;2022-12-29T08:41:00;99920.56;;;10.41;93.43
70015;BME280;57358;51.094;6.760;2022-12-29T08:43:29;99917.03;;;10.54;91.86
70015;BME280;57358;51.094;6.760;2022-12-29T08:45:57;99975.66;;;10.68;91.31
70015;BME280;57358;51.094;6.760;2022-12-29T08:48:25;99964.34;;;10.80;89.40
70015;BME280;57358;51.094;6.760;2022-12-29T08:50:52;99746.44;;;9.47;89.08
70015;BME280;57358;51.094;6.760;2022-12-29T08:53:19;99959.97;;;10.81;88.45
70015;BME280;57358;51.094;6.760;2022-12-29T08:55:46;99934.56;;;10.81;87.37
70015;BME280;57358;51.094;6.760;2022-12-29T08:58:13;99936.56;;;10.90;86.26
70015;BME280;57358;51.094;6.760;2022-12-29T09:00:42;99847.84;;;10.28;86.84
70015;BME280;57358;51.094;6.760;2022-12-29T09:03:08;99940.28;;;10.73;87.40
70015;BME280;57358;51.094;6.760;2022-12-29T09:05:35;99940.19;;;10.75;86.94
70015;BME280;57358;51.094;6.760;2022-12-29T09:08:02;99848.84;;;10.13;87.05
70015;BME280;57358;51.094;6.760;2022-12-29T09:55:24;99903.13;;;11.45;76.58
70015;BME280;57358;51.094;6.760;2022-12-29T09:57:55;99885.16;;;11.39;76.60
70015;BME280;57358;51.094;6.760;2022-12-29T10:09:16;99858.78;;;11.28;75.05
70015;BME280;57358;51.094;6.760;2022-12-29T10:12:03;99847.34;;;11.29;75.60
70015;BME280;57358;51.094;6.760;2022-12-29T10:14:58;99838.72;;;11.27;75.24
70015;BME280;57358;51.094;6.760;2022-12-29T10:20:16;99815.94;;;11.02;74.68
70015;BME280;57358;51.094;6.760;2022-12-29T10:22:57;99838.72;;;11.14;74.71
70015;BME280;57358;51.094;6.760;2022-12-29T10:25:34;99835.78;;;11.18;74.69
70015;BME280;57358;51.094;6.760;2022-12-29T10:28:05;99831.16;;;11.35;74.83
70015;BME280;57358;51.094;6.760;2022-12-29T10:30:34;99778.31;;;11.27;74.45
70015;BME280;57358;51.094;6.760;2022-12-29T10:33:11;99811.91;;;11.34;73.19
70015;BME280;57358;51.094;6.760;2022-12-29T10:35:39;99774.72;;;11.41;72.35
70015;BME280;57358;51.094;6.760;2022-12-29T10:43:51;99721.75;;;11.34;71.59
70015;BME280;57358;51.094;6.760;2022-12-29T10:46:23;99793.31;;;11.87;71.34
70015;BME280;57358;51.094;6.760;2022-12-29T10:48:50;99825.38;;;11.92;72.05
70015;BME280;57358;51.094;6.760;2022-12-29T10:51:47;99809.78;;;12.02;71.45
70015;BME280;57358;51.094;6.760;2022-12-29T10:54:20;99811.19;;;11.95;71.07
70015;BME280;57358;51.094;6.760;2022-12-29T10:56:54;99758.38;;;11.61;70.83
70015;BME280;57358;51.094;6.760;2022-12-29T10:59:29;99743.63;;;11.71;70.66
70015;BME280;57358;51.094;6.760;2022-12-29T11:07:22;99822.28;;;12.35;70.71
70015;BME280;57358;51.094;6.760;2022-12-29T11:09:52;99763.34;;;12.14;69.89
70015;BME280;57358;51.094;6.760;2022-12-29T11:12:20;99817.59;;;12.63;69.68
70015;BME280;57358;51.094;6.760;2022-12-29T11:15:01;99755.88;;;12.32;69.19
70015;BME280;57358;51.094;6.760;2022-12-29T11:17:28;99784.53;;;12.48;68.53
70015;BME280;57358;51.094;6.760;2022-12-29T11:19:54;99813.31;;;12.73;69.15
70015;BME280;57358;51.094;6.760;2022-12-29T11:22:23;99797.66;;;12.83;68.07
70015;BME280;57358;51.094;6.760;2022-12-29T11:24:52;99763.50;;;12.59;68.07
70015;BME280;57358;51.094;6.760;2022-12-29T11:27:20;99772.63;;;12.77;68.24
70015;BME280;57358;51.094;6.760;2022-12-29T11:29:50;99791.03;;;12.66;66.86
70015;BME280;57358;51.094;6.760;2022-12-29T11:32:25;99755.41;;;12.38;66.96
70015;BME280;57358;51.094;6.760;2022-12-29T11:34:55;99754.34;;;12.41;66.91
70015;BME280;57358;51.094;6.760;2022-12-29T11:37:32;99702.25;;;12.10;67.39
70015;BME280;57358;51.094;6.760;2022-12-29T11:40:18;99773.69;;;12.28;66.97
70015;BME280;57358;51.094;6.760;2022-12-29T11:42:57;99749.09;;;12.05;67.48
70015;BME280;57358;51.094;6.760;2022-12-29T11:45:27;99692.16;;;11.56;68.32
70015;BME280;57358;51.094;6.760;2022-12-29T11:50:27;99754.03;;;11.73;69.21
70015;BME280;57358;51.094;6.760;2022-12-29T11:53:01;99788.94;;;11.75;69.95
70015;BME280;57358;51.094;6.760;2022-12-29T11:55:31;99772.88;;;11.67;68.98
70015;BME280;57358;51.094;6.760;2022-12-29T11:58:00;99754.84;;;11.49;69.86
70015;BME280;57358;51.094;6.760;2022-12-29T12:00:31;99823.97;;;11.63;70.54
70015;BME280;57358;51.094;6.760;2022-12-29T12:03:16;99809.47;;;11.44;70.26
70015;BME280;57358;51.094;6.760;2022-12-29T12:05:55;99830.41;;;11.46;70.93
70015;BME280;57358;51.094;6.760;2022-12-29T12:08:37;99841.00;;;11.44;71.72
70015;BME280;57358;51.094;6.760;2022-12-29T12:11:27;99847.44;;;11.40;71.90
70015;BME280;57358;51.094;6.760;2022-12-29T12:14:07;99777.28;;;11.04;70.77
70015;BME280;57358;51.094;6.760;2022-12-29T12:16:44;99828.72;;;11.32;71.45
70015;BME280;57358;51.094;6.760;2022-12-29T12:19:31;99856.56;;;11.34;71.53
70015;BME280;57358;51.094;6.760;2022-12-29T12:22:07;99862.56;;;11.36;72.39
70015;BME280;57358;51.094;6.760;2022-12-29T12:24:42;99866.16;;;11.35;72.72
70015;BME280;57358;51.094;6.760;2022-12-29T12:27:21;99845.97;;;11.36;72.51
70015;BME280;57358;51.094;6.760;2022-12-29T12:29:59;99855.22;;;11.42;71.51
70015;BME280;57358;51.094;6.760;2022-12-29T12:32:44;99787.47;;;10.95;71.60
70015;BME280;57358;51.094;6.760;2022-12-29T12:43:43;99877.06;;;11.29;73.01
70015;BME280;57358;51.094;6.760;2022-12-29T12:46:29;99892.59;;;11.32;72.83
70015;BME280;57358;51.094;6.760;2022-12-29T12:51:52;99859.22;;;11.22;72.08
70015;BME280;57358;51.094;6.760;2022-12-29T12:57:28;99895.38;;;11.31;72.34
70015;BME280;57358;51.094;6.760;2022-12-29T13:00:05;99878.88;;;11.29;71.97
70015;BME280;57358;51.094;6.760;2022-12-29T13:02:43;99815.63;;;10.81;72.41
70015;BME280;57358;51.094;6.760;2022-12-29T13:08:33;99873.06;;;11.24;72.14
70015;BME280;57358;51.094;6.760;2022-12-29T13:11:21;99854.06;;;11.07;72.37
70015;BME280;57358;51.094;6.760;2022-12-29T13:14:02;99841.53;;;10.98;72.30
70015;BME280;57358;51.094;6.760;2022-12-29T13:30:19;99858.78;;;11.28;70.34
70015;BME280;57358;51.094;6.760;2022-12-29T13:35:38;99824.34;;;11.20;69.14
70015;BME280;57358;51.094;6.760;2022-12-29T13:38:30;99858.34;;;11.08;69.37
70015;BME280;57358;51.094;6.760;2022-12-29T13:41:03;99853.28;;;10.92;70.08
70015;BME280;57358;51.094;6.760;2022-12-29T13:43:33;99817.38;;;10.67;69.71
70015;BME280;57358;51.094;6.760;2022-12-29T13:46:10;99771.97;;;10.40;69.69
70015;BME280;57358;51.094;6.760;2022-12-29T13:48:58;99846.25;;;10.80;70.15
70015;BME280;57358;51.094;6.760;2022-12-29T13:51:26;99841.28;;;10.63;70.70
70015;BME280;57358;51.094;6.760;2022-12-29T13:56:54;99873.31;;;10.68;71.37
70015;BME280;57358;51.094;6.760;2022-12-29T13:59:42;99916.91;;;10.83;71.91
70015;BME280;57358;51.094;6.760;2022-12-29T14:02:29;99933.16;;;10.75;73.53
70015;BME280;57358;51.094;6.760;2022-12-29T14:05:02;99968.06;;;10.90;74.02
70015;BME280;57358;51.094;6.760;2022-12-29T14:07:36;99872.47;;;10.40;74.04
70015;BME280;57358;51.094;6.760;2022-12-29T14:10:04;99958.19;;;10.94;73.57
70015;BME280;57358;51.094;6.760;2022-12-29T14:12:42;99941.63;;;10.66;73.59
70015;BME280;57358;51.094;6.760;2022-12-29T14:17:40;99952.72;;;10.84;73.18
70015;BME280;57358;51.094;6.760;2022-12-29T14:20:20;99934.56;;;10.81;72.81
70015;BME280;57358;51.094;6.760;2022-12-29T14:22:59;99917.72;;;10.71;72.44
70015;BME280;57358;51.094;6.760;2022-12-29T14:30:59;99852.94;;;10.31;71.30
70015;BME280;57358;51.094;6.760;2022-12-29T14:33:29;99921.25;;;10.57;71.98
70015;BME280;57358;51.094;6.760;2022-12-29T14:35:58;99931.00;;;10.55;72.38
70015;BME280;57358;51.094;6.760;2022-12-29T14:38:46;99924.09;;;10.40;72.80
70015;BME280;57358;51.094;6.760;2022-12-29T14:43:53;99819.97;;;9.44;73.64
70015;BME280;57358;51.094;6.760;2022-12-29T14:46:21;99947.34;;;10.31;73.92
70015;BME280;57358;51.094;6.760;2022-12-29T14:48:55;99975.72;;;10.39;73.81
70015;BME280;57358;51.094;6.760;2022-12-29T14:51:34;99943.97;;;10.15;74.33
70015;BME280;57358;51.094;6.760;2022-12-29T14:54:40;99975.72;;;10.39;74.12
70015;BME280;57358;51.094;6.760;2022-12-29T14:57:16;99969.53;;;10.26;74.18
70015;BME280;57358;51.094;6.760;2022-12-29T14:59:46;99990.16;;;10.32;74.35
70015;BME280;57358;51.094;6.760;2022-12-29T15:02:19;99991.09;;;10.31;74.96
70015;BME280;57358;51.094;6.760;2022-12-29T15:04:48;100002.78;;;10.25;75.32
70015;BME280;57358;51.094;6.760;2022-12-29T15:07:17;99997.91;;;10.19;74.96
70015;BME280;57358;51.094;6.760;2022-12-29T15:09:47;100005.50;;;10.24;76.04
70015;BME280;57358;51.094;6.760;2022-12-29T15:12:21;100007.66;;;10.17;75.51
70015;BME280;57358;51.094;6.760;2022-12-29T15:14:52;99980.97;;;9.96;75.51
70015;BME280;57358;51.094;6.760;2022-12-29T15:19:52;100017.03;;;10.07;76.83
70015;BME280;57358;51.094;6.760;2022-12-29T15:22:19;99996.22;;;9.75;77.58
70015;BME280;57358;51.094;6.760;2022-12-29T15:24:47;100024.03;;;9.92;77.44
70015;BME280;57358;51.094;6.760;2022-12-29T15:27:20;100036.59;;;9.87;77.75
70015;BME280;57358;51.094;6.760;2022-12-29T15:29:47;99991.63;;;9.64;77.55
70015;BME280;57358;51.094;6.760;2022-12-29T15:32:22;100030.97;;;9.78;77.50
70015;BME280;57358;51.094;6.760;2022-12-29T15:34:53;100025.72;;;9.78;77.79
70015;BME280;57358;51.094;6.760;2022-12-29T15:39:53;100023.09;;;9.78;76.58
70015;BME280;57358;51.094;6.760;2022-12-29T15:45:11;100040.13;;;9.86;76.58
70015;BME280;57358;51.094;6.760;2022-12-29T15:47:41;100016.06;;;9.65;77.08